Time;durP1;ratioP1;P1;durP2;ratioP2;P2;SDS_P1;SDS_P2;PMS_P1;PMS_P2;Temp;Humidity;BMP_temperature;BMP_pressure;BME280_temperature;BME280_humidity;BME280_pressure;Samples;Min_cycle;Max_cycle;Signal;HPM_P1;HPM_P2
2022/05/20 00:01:25;;;;;;;;;;;;;;;24.08;50.15;102046.84;5074151;28;20340;-88
2022/05/20 00:03:50;;;;;;;;;;;;;;;24.07;50.28;102053.50;5073050;28;20274;-86
2022/05/20 00:06:15;;;;;;;;;;;;;;;24.06;50.42;102049.91;5074235;28;19966;-87
2022/05/20 00:08:41;;;;;;;;;;;;;;;24.05;50.39;102059.31;5072756;28;19924;-87
2022/05/20 00:11:06;;;;;;;;;;;;;;;24.06;50.06;102055.41;5056026;28;20394;-86
2022/05/20 00:13:32;;;;;;;;;;;;;;;24.06;50.23;102051.84;5073987;28;19948;-87
2022/05/20 00:15:57;;;;;;;;;;;;;;;24.05;50.03;102047.47;5072493;28;19984;-86
2022/05/20 00:18:23;;;;;;;;;;;;;;;24.05;50.54;102052.97;5072628;28;19916;-86
2022/05/20 00:20:48;;;;;;;;;;;;;;;24.04;50.20;102052.16;5073433;28;20301;-86
2022/05/20 00:23:14;;;;;;;;;;;;;;;24.04;50.18;102054.94;5073925;28;19945;-86
2022/05/20 00:25:48;;;;;;;;;;;;;;;24.05;50.36;102047.47;5074486;28;20385;-86
2022/05/20 00:28:13;;;;;;;;;;;;;;;24.04;49.95;102054.94;5074092;28;19933;-86
2022/05/20 00:30:39;;;;;;;;;;;;;;;24.03;49.95;102064.31;5072398;28;19929;-86
2022/05/20 00:33:04;;;;;;;;;;;;;;;24.02;50.43;102057.16;5072512;28;19946;-86
2022/05/20 00:35:29;;;;;;;;;;;;;;;24.03;49.94;102056.03;5074501;28;19984;-86
2022/05/20 00:37:55;;;;;;;;;;;;;;;24.02;50.39;102057.16;5073565;28;19936;-87
2022/05/20 00:40:21;;;;;;;;;;;;;;;24.01;49.85;102060.22;5055765;28;19921;-87
2022/05/20 00:42:48;;;;;;;;;;;;;;;24.01;49.87;102050.00;5073743;28;19912;-86
2022/05/20 00:45:14;;;;;;;;;;;;;;;24.02;49.97;102048.06;5073497;28;19917;-87
2022/05/20 00:47:41;;;;;;;;;;;;;;;24.01;50.14;102038.13;5076963;28;19939;-87
2022/05/20 00:50:09;;;;;;;;;;;;;;;24.01;49.82;102036.19;5076349;28;20041;-87
2022/05/20 00:52:36;;;;;;;;;;;;;;;24.00;50.09;102037.31;5077492;28;20399;-88
2022/05/20 00:55:05;;;;;;;;;;;;;;;24.00;50.12;102039.25;5078014;28;19935;-89
2022/05/20 00:57:32;;;;;;;;;;;;;;;23.98;49.79;102032.09;5076206;28;19938;-87
2022/05/20 00:59:59;;;;;;;;;;;;;;;23.97;49.97;102033.22;5077665;28;19912;-86
2022/05/20 01:02:25;;;;;;;;;;;;;;;23.97;49.97;102035.97;5075913;28;20411;-87
2022/05/20 01:04:55;;;;;;;;;;;;;;;23.97;49.79;102038.75;5077040;28;19930;-87
2022/05/20 01:07:21;;;;;;;;;;;;;;;23.98;50.16;102028.53;5076483;28;19960;-87
2022/05/20 01:09:46;;;;;;;;;;;;;;;23.97;50.12;102026.91;5076838;28;19937;-86
2022/05/20 01:12:12;;;;;;;;;;;;;;;23.96;49.72;102031.59;5076991;28;19953;-87
2022/05/20 01:14:37;;;;;;;;;;;;;;;23.96;49.75;102028.00;5076849;28;20489;-87
2022/05/20 01:17:02;;;;;;;;;;;;;;;23.95;50.10;102032.69;5076162;28;19949;-87
2022/05/20 01:19:35;;;;;;;;;;;;;;;23.95;49.69;102029.94;5075607;28;19950;-86
2022/05/20 01:22:01;;;;;;;;;;;;;;;23.93;49.64;102026.66;5075104;28;19934;-87
2022/05/20 01:24:27;;;;;;;;;;;;;;;23.94;49.75;102027.50;5076956;28;20000;-84
2022/05/20 01:26:52;;;;;;;;;;;;;;;23.93;49.62;102029.41;5076474;28;19990;-85
2022/05/20 01:29:18;;;;;;;;;;;;;;;23.93;49.67;102021.13;5075316;28;19913;-86
2022/05/20 01:31:43;;;;;;;;;;;;;;;23.92;49.73;102016.75;5077053;28;19972;-85
2022/05/20 01:34:08;;;;;;;;;;;;;;;23.93;50.00;102023.09;5076692;28;19977;-86
2022/05/20 01:36:34;;;;;;;;;;;;;;;23.92;49.68;102007.66;5076537;28;19970;-86
2022/05/20 01:39:00;;;;;;;;;;;;;;;23.91;49.68;102009.63;5075754;28;20272;-87
2022/05/20 01:41:55;;;;;;;;;;;;;;;23.91;49.56;102011.53;5077883;28;19970;-86
2022/05/20 01:44:26;;;;;;;;;;;;;;;23.90;49.55;102005.19;5062117;28;20378;-87
2022/05/20 01:46:58;;;;;;;;;;;;;;;23.90;49.89;102005.19;5074853;28;19942;-87
2022/05/20 01:49:24;;;;;;;;;;;;;;;23.89;49.56;102013.75;5076370;28;19958;-87
2022/05/20 01:51:49;;;;;;;;;;;;;;;23.89;49.65;102016.53;5076120;28;20256;-85
2022/05/20 01:54:20;;;;;;;;;;;;;;;23.88;49.96;102006.63;5076202;28;19943;-87
2022/05/20 01:56:49;;;;;;;;;;;;;;;23.88;49.52;102012.13;5076188;28;20244;-87
2022/05/20 01:59:21;;;;;;;;;;;;;;;23.87;49.46;102008.56;5075509;28;19930;-87
2022/05/20 02:01:55;;;;;;;;;;;;;;;23.88;49.98;102012.13;5074812;28;20352;-87
2022/05/20 02:04:28;;;;;;;;;;;;;;;23.86;49.48;102012.44;5075747;28;19920;-87
2022/05/20 02:06:57;;;;;;;;;;;;;;;23.86;49.44;102004.16;5074541;28;20412;-87
2022/05/20 02:09:33;;;;;;;;;;;;;;;23.85;49.54;102002.53;5074881;28;19919;-88
2022/05/20 02:11:59;;;;;;;;;;;;;;;23.85;49.43;102001.72;5074885;28;20263;-87
2022/05/20 02:14:42;;;;;;;;;;;;;;;23.84;49.78;101998.13;5075475;28;20009;-87
2022/05/20 02:17:24;;;;;;;;;;;;;;;23.84;49.82;102005.56;5075617;28;20388;-87
2022/05/20 02:20:12;;;;;;;;;;;;;;;23.84;49.75;102005.56;5075819;28;20241;-88
2022/05/20 02:22:40;;;;;;;;;;;;;;;23.83;49.34;101999.25;5076223;28;19931;-88
2022/05/20 02:25:08;;;;;;;;;;;;;;;23.82;49.33;102003.13;5074621;28;19946;-87
2022/05/20 02:27:37;;;;;;;;;;;;;;;23.83;49.45;101998.44;5075064;28;19953;-88
2022/05/20 02:30:05;;;;;;;;;;;;;;;23.81;49.71;102001.47;5074268;28;19927;-87
2022/05/20 02:32:31;;;;;;;;;;;;;;;23.81;49.76;102007.00;5075951;28;19939;-88
2022/05/20 02:34:57;;;;;;;;;;;;;;;23.81;49.52;102004.25;5075349;28;19938;-88
2022/05/20 02:37:22;;;;;;;;;;;;;;;23.80;49.65;102008.13;5075713;28;19939;-87
2022/05/20 02:39:47;;;;;;;;;;;;;;;23.78;49.26;102004.84;5075442;28;19923;-89
2022/05/20 02:42:13;;;;;;;;;;;;;;;23.80;49.67;101996.28;5074343;28;19941;-88
2022/05/20 02:44:38;;;;;;;;;;;;;;;23.79;49.54;102000.13;5074802;28;19920;-88
2022/05/20 02:47:03;;;;;;;;;;;;;;;23.78;49.54;101998.50;5075215;28;19916;-87
2022/05/20 02:49:29;;;;;;;;;;;;;;;23.78;49.66;101996.56;5075240;28;20383;-87
2022/05/20 02:51:54;;;;;;;;;;;;;;;23.78;49.19;101988.28;5075196;28;19916;-87
2022/05/20 02:54:19;;;;;;;;;;;;;;;23.77;49.57;101992.19;5075363;28;20411;-87
2022/05/20 02:56:44;;;;;;;;;;;;;;;23.78;49.63;101998.50;5075682;28;19950;-89
2022/05/20 03:04:39;;;;;;;;;;;;;;;23.75;49.59;101992.47;5075301;28;19983;-90
2022/05/20 03:07:05;;;;;;;;;;;;;;;23.75;49.13;101978.69;5073632;28;20431;-89
2022/05/20 03:09:30;;;;;;;;;;;;;;;23.74;49.42;101977.06;5074219;28;19970;-89
2022/05/20 03:11:55;;;;;;;;;;;;;;;23.74;49.18;101973.47;5074402;28;19950;-88
2022/05/20 03:14:22;;;;;;;;;;;;;;;23.73;49.52;101972.63;5057294;28;19947;-90
2022/05/20 03:16:48;;;;;;;;;;;;;;;23.72;49.16;101970.16;5074678;28;19957;-87
2022/05/20 03:19:14;;;;;;;;;;;;;;;23.72;49.43;101971.00;5074480;28;19913;-90
2022/05/20 03:21:39;;;;;;;;;;;;;;;23.72;49.16;101965.50;5075616;28;20009;-89
2022/05/20 03:24:06;;;;;;;;;;;;;;;23.72;49.44;101973.78;5074517;28;20002;-88
2022/05/20 03:26:31;;;;;;;;;;;;;;;23.71;49.48;101974.88;5074560;28;20007;-89
2022/05/20 03:29:02;;;;;;;;;;;;;;;23.71;49.05;101977.63;5074721;28;19962;-89
2022/05/20 03:31:27;;;;;;;;;;;;;;;23.71;49.39;101976.78;5075849;28;20378;-87
2022/05/20 03:33:53;;;;;;;;;;;;;;;23.71;49.26;101979.56;5075398;28;20012;-89
2022/05/20 03:36:18;;;;;;;;;;;;;;;23.69;49.39;101974.34;5074043;28;19923;-89
2022/05/20 03:38:44;;;;;;;;;;;;;;;23.69;48.98;101965.25;5075938;28;19928;-90
2022/05/20 03:41:10;;;;;;;;;;;;;;;23.69;49.05;101965.25;5074958;28;19930;-89
2022/05/20 03:43:35;;;;;;;;;;;;;;;23.69;49.00;101962.50;5075006;28;19916;-89
2022/05/20 03:46:01;;;;;;;;;;;;;;;23.69;49.04;101957.00;5073901;28;19947;-86
2022/05/20 03:48:26;;;;;;;;;;;;;;;23.68;48.94;101952.56;5073153;28;19941;-88
2022/05/20 03:50:52;;;;;;;;;;;;;;;23.68;49.31;101953.38;5074113;28;19959;-89
2022/05/20 03:53:17;;;;;;;;;;;;;;;23.67;49.32;101954.53;5056070;28;19965;-88
2022/05/20 03:55:43;;;;;;;;;;;;;;;23.67;49.00;101954.53;5074448;28;19946;-88
2022/05/20 03:58:09;;;;;;;;;;;;;;;23.67;49.39;101950.94;5072969;28;20040;-88
2022/05/20 04:01:56;;;;;;;;;;;;;;;23.66;48.88;101950.13;5074274;28;19923;-89
2022/05/20 04:03:22;;;;;;;;;;;;;;;23.66;48.85;101932.75;5072835;28;19916;-89
2022/05/20 04:05:47;;;;;;;;;;;;;;;23.65;49.30;101937.44;5073220;28;19957;-89
2022/05/20 04:08:13;;;;;;;;;;;;;;;23.66;49.22;101938.25;5074262;28;19922;-87
2022/05/20 04:10:38;;;;;;;;;;;;;;;23.65;49.28;101940.22;5073103;28;19927;-90
2022/05/20 04:13:04;;;;;;;;;;;;;;;23.65;49.25;101939.41;5073305;28;20320;-90
2022/05/20 04:15:29;;;;;;;;;;;;;;;23.65;49.27;101939.41;5074862;28;19927;-83
2022/05/20 04:17:54;;;;;;;;;;;;;;;23.64;49.00;101944.09;5072923;28;19928;-88
2022/05/20 04:20:19;;;;;;;;;;;;;;;23.65;48.90;101942.16;5073462;28;20382;-87
2022/05/20 04:22:45;;;;;;;;;;;;;;;23.64;49.32;101941.34;5076776;28;20007;-87
2022/05/20 04:25:12;;;;;;;;;;;;;;;23.64;49.08;101946.03;5076711;28;19957;-89
2022/05/20 04:27:37;;;;;;;;;;;;;;;23.64;49.17;101951.56;5077739;28;20279;-89
2022/05/20 04:30:03;;;;;;;;;;;;;;;23.63;48.85;101944.38;5076735;28;19983;-89
2022/05/20 04:32:28;;;;;;;;;;;;;;;23.63;49.21;101938.88;5060781;28;19917;-89
2022/05/20 04:34:53;;;;;;;;;;;;;;;23.63;49.12;101941.63;5077970;28;19917;-88
2022/05/20 04:37:19;;;;;;;;;;;;;;;23.63;49.21;101945.19;5078384;28;19969;-90
2022/05/20 04:39:44;;;;;;;;;;;;;;;23.62;49.10;101954.59;5078370;28;20025;-90
2022/05/20 04:47:40;;;;;;;;;;;;;;;23.63;49.12;101959.00;5078896;28;19919;-87
2022/05/20 04:50:06;;;;;;;;;;;;;;;23.61;48.72;101950.22;5078518;28;19927;-90
2022/05/20 04:52:32;;;;;;;;;;;;;;;23.62;49.13;101954.59;5078556;28;19916;-89
2022/05/20 04:54:57;;;;;;;;;;;;;;;23.62;49.08;101951.84;5076363;28;19913;-89
2022/05/20 04:57:24;;;;;;;;;;;;;;;23.61;48.91;101955.75;5076481;28;19962;-89
2022/05/20 04:59:51;;;;;;;;;;;;;;;23.60;49.06;101945.81;5077621;28;19912;-89
2022/05/20 05:02:16;;;;;;;;;;;;;;;23.62;48.99;101951.84;5077369;28;19962;-90
2022/05/20 05:04:42;;;;;;;;;;;;;;;23.61;48.79;101952.97;5076458;28;19977;-90
2022/05/20 05:07:09;;;;;;;;;;;;;;;23.62;48.71;101951.03;5076040;28;20007;-89
2022/05/20 05:09:35;;;;;;;;;;;;;;;23.61;49.09;101947.47;5076636;28;20003;-90
2022/05/20 05:12:00;;;;;;;;;;;;;;;23.62;49.02;101945.53;5076718;28;20003;-89
2022/05/20 05:14:26;;;;;;;;;;;;;;;23.62;49.09;101948.28;5076590;28;19942;-89
2022/05/20 05:16:51;;;;;;;;;;;;;;;23.61;48.62;101936.44;5077361;28;20006;-87
2022/05/20 05:19:16;;;;;;;;;;;;;;;23.61;49.06;101935.59;5077591;28;19934;-91
2022/05/20 05:21:41;;;;;;;;;;;;;;;23.61;48.66;101936.44;5076385;28;19942;-89
2022/05/20 05:24:07;;;;;;;;;;;;;;;23.62;49.00;101940.00;5076312;28;19923;-90
2022/05/20 05:26:34;;;;;;;;;;;;;;;23.61;48.72;101936.44;5077233;28;19912;-91
2022/05/20 05:29:00;;;;;;;;;;;;;;;23.62;48.61;101923.44;5077644;28;20063;-90
2022/05/20 05:31:26;;;;;;;;;;;;;;;23.61;48.63;101916.28;5076905;28;20240;-90
2022/05/20 05:33:52;;;;;;;;;;;;;;;23.61;48.99;101917.13;5075386;28;19939;-90
2022/05/20 05:36:18;;;;;;;;;;;;;;;23.61;49.04;101930.91;5075898;28;20271;-90
2022/05/20 05:38:43;;;;;;;;;;;;;;;23.61;48.59;101938.34;5077172;28;19931;-91
2022/05/20 05:41:10;;;;;;;;;;;;;;;23.61;48.67;101938.34;5059437;28;19946;-91
2022/05/20 05:43:35;;;;;;;;;;;;;;;23.61;49.03;101944.72;5076067;28;19977;-90
2022/05/20 05:46:00;;;;;;;;;;;;;;;23.61;48.79;101935.59;5076591;28;19912;-85
2022/05/20 05:48:26;;;;;;;;;;;;;;;23.61;49.10;101936.44;5058709;28;20037;-89
2022/05/20 05:50:51;;;;;;;;;;;;;;;23.61;48.77;101941.94;5076613;28;20352;-87
2022/05/20 05:53:18;;;;;;;;;;;;;;;23.61;48.98;101939.19;5078065;28;20053;-94
2022/05/20 05:55:45;;;;;;;;;;;;;;;23.63;48.57;101938.88;5076453;28;20492;-91
2022/05/20 05:58:11;;;;;;;;;;;;;;;23.62;48.67;101938.06;5075989;28;20275;-92
2022/05/20 06:00:37;;;;;;;;;;;;;;;23.62;48.60;101934.50;5076864;28;19923;-89
2022/05/20 06:03:02;;;;;;;;;;;;;;;23.62;48.90;101924.28;5076663;28;20278;-93
2022/05/20 06:05:28;;;;;;;;;;;;;;;23.63;48.73;101916.81;5077311;28;19947;-90
2022/05/20 06:07:54;;;;;;;;;;;;;;;23.63;48.66;101916.81;5075745;28;19963;-90
2022/05/20 06:10:19;;;;;;;;;;;;;;;23.63;48.86;101917.63;5075806;28;20358;-92
2022/05/20 06:12:45;;;;;;;;;;;;;;;23.63;49.08;101906.59;5059164;28;19920;-91
2022/05/20 06:15:13;;;;;;;;;;;;;;;23.63;48.89;101903.81;5076912;28;19920;-90
2022/05/20 06:17:39;;;;;;;;;;;;;;;23.64;48.90;101901.91;5076624;28;19913;-89
2022/05/20 06:20:05;;;;;;;;;;;;;;;23.63;49.04;101903.81;5079047;28;19989;-85
2022/05/20 06:22:30;;;;;;;;;;;;;;;23.64;48.91;101908.25;5075448;28;19973;-91
2022/05/20 06:24:55;;;;;;;;;;;;;;;23.65;49.01;101900.78;5074386;28;20004;-85
2022/05/20 06:27:21;;;;;;;;;;;;;;;23.65;48.62;101904.34;5075771;28;19949;-89
2022/05/20 06:29:49;;;;;;;;;;;;;;;23.65;48.97;101909.88;5076398;28;19976;-87
2022/05/20 06:32:15;;;;;;;;;;;;;;;23.66;48.95;101905.16;5075632;28;19913;-92
2022/05/20 06:40:10;;;;;;;;;;;;;;;23.66;48.94;101900.50;5075701;28;19938;-85
2022/05/20 06:42:36;;;;;;;;;;;;;;;23.67;48.55;101902.09;5075216;28;19970;-85
2022/05/20 06:45:01;;;;;;;;;;;;;;;23.68;48.69;101900.16;5074014;28;20256;-85
2022/05/20 06:47:26;;;;;;;;;;;;;;;23.68;48.62;101900.97;5058169;28;19917;-88
2022/05/20 06:49:51;;;;;;;;;;;;;;;23.69;48.76;101888.84;5074091;28;19950;-88
2022/05/20 06:52:17;;;;;;;;;;;;;;;23.70;48.93;101884.13;5074912;28;20348;-87
2022/05/20 06:54:44;;;;;;;;;;;;;;;23.70;48.94;101875.84;5057191;28;20217;-87
2022/05/20 06:57:09;;;;;;;;;;;;;;;23.71;49.32;101871.97;5073883;28;19940;-87
2022/05/20 06:59:35;;;;;;;;;;;;;;;23.71;49.36;101875.56;5074712;28;19912;-87
2022/05/20 07:02:01;;;;;;;;;;;;;;;23.72;49.04;101873.63;5074829;28;19951;-88
2022/05/20 07:04:29;;;;;;;;;;;;;;;23.72;49.09;101873.63;5056742;28;19931;-88
2022/05/20 07:06:54;;;;;;;;;;;;;;;23.71;48.98;101870.06;5074609;28;19953;-87
2022/05/20 07:09:19;;;;;;;;;;;;;;;23.71;49.12;101869.22;5073104;28;19923;-87
2022/05/20 07:11:44;;;;;;;;;;;;;;;23.71;48.99;101867.28;5056568;28;19992;-88
2022/05/20 07:14:10;;;;;;;;;;;;;;;23.70;49.49;101860.13;5074663;28;19989;-88
2022/05/20 07:16:35;;;;;;;;;;;;;;;23.71;49.29;101860.94;5073006;28;20341;-87
2022/05/20 07:19:00;;;;;;;;;;;;;;;23.70;49.06;101862.88;5073489;28;20357;-87
2022/05/20 07:21:25;;;;;;;;;;;;;;;23.71;49.37;101864.53;5057440;28;19952;-90
2022/05/20 07:23:51;;;;;;;;;;;;;;;23.71;48.96;101853.50;5073948;28;20370;-90
2022/05/20 07:26:17;;;;;;;;;;;;;;;23.70;49.32;101851.84;5057786;28;19916;-92
2022/05/20 07:28:43;;;;;;;;;;;;;;;23.70;49.46;101846.31;5090655;28;19912;-92
2022/05/20 07:31:08;;;;;;;;;;;;;;;23.70;48.98;101851.84;5086472;28;19938;-84
2022/05/20 07:33:34;;;;;;;;;;;;;;;23.71;49.08;101844.38;5074267;28;20444;-88
2022/05/20 07:35:59;;;;;;;;;;;;;;;23.71;49.34;101845.22;5072935;28;19933;-87
2022/05/20 07:38:25;;;;;;;;;;;;;;;23.71;48.94;101847.13;5072938;28;19927;-85
2022/05/20 07:40:55;;;;;;;;;;;;;;;23.71;49.38;101839.69;5073657;28;19934;-88
2022/05/20 07:43:22;;;;;;;;;;;;;;;23.72;49.29;101829.47;5072819;28;19932;-86
2022/05/20 07:45:47;;;;;;;;;;;;;;;23.72;49.35;101826.72;5074794;28;19923;-86
2022/05/20 07:48:13;;;;;;;;;;;;;;;23.72;48.87;101807.41;5074379;28;20279;-94
2022/05/20 07:50:40;;;;;;;;;;;;;;;23.73;49.14;101809.88;5073992;28;19924;-94
2022/05/20 07:53:21;;;;;;;;;;;;;;;23.72;48.80;101805.50;5073925;28;20041;-93
2022/05/20 07:55:57;;;;;;;;;;;;;;;23.72;48.89;101802.75;5074850;28;19939;-95
2022/05/20 07:58:27;;;;;;;;;;;;;;;23.72;49.25;101804.66;5074501;28;19930;-94
2022/05/20 08:00:58;;;;;;;;;;;;;;;23.73;49.20;101807.13;5073958;28;19912;-95
2022/05/20 08:06:08;;;;;;;;;;;;;;;23.73;48.93;101789.75;5075609;28;20381;-93
2022/05/20 08:08:33;;;;;;;;;;;;;;;23.73;48.83;101790.56;5074436;28;19935;-94
2022/05/20 08:10:58;;;;;;;;;;;;;;;23.73;48.79;101795.28;5074028;28;20022;-94
2022/05/20 08:13:25;;;;;;;;;;;;;;;23.73;49.25;101784.25;5057295;28;20275;-93
2022/05/20 08:15:50;;;;;;;;;;;;;;;23.74;48.84;101792.22;5057381;28;19916;-94
2022/05/20 08:18:17;;;;;;;;;;;;;;;23.74;49.20;101789.47;5057451;28;19950;-95
2022/05/20 08:20:43;;;;;;;;;;;;;;;23.74;48.77;101794.16;5074086;28;19931;-94
2022/05/20 08:23:08;;;;;;;;;;;;;;;23.75;48.75;101793.03;5074740;28;19923;-94
2022/05/20 08:25:35;;;;;;;;;;;;;;;23.74;49.24;101791.41;5073286;28;20375;-94
2022/05/20 08:28:00;;;;;;;;;;;;;;;23.75;49.17;101779.25;5073965;28;19953;-94
2022/05/20 08:30:26;;;;;;;;;;;;;;;23.75;49.09;101774.53;5073756;28;19917;-95
2022/05/20 08:32:52;;;;;;;;;;;;;;;23.74;48.75;101759.13;5073632;28;19945;-94
2022/05/20 08:35:17;;;;;;;;;;;;;;;23.75;48.84;101748.88;5073524;28;19982;-91
2022/05/20 08:37:44;;;;;;;;;;;;;;;23.74;49.07;101742.56;5075170;28;19926;-94
2022/05/20 08:40:16;;;;;;;;;;;;;;;23.75;48.71;101732.34;5073908;28;19939;-93
2022/05/20 08:42:43;;;;;;;;;;;;;;;23.74;49.14;101714.16;5074784;28;19913;-94
2022/05/20 08:45:18;;;;;;;;;;;;;;;23.75;48.75;101708.31;5074239;28;20286;-94
2022/05/20 08:47:43;;;;;;;;;;;;;;;23.76;48.69;101703.63;5073441;28;20352;-93
2022/05/20 08:50:20;;;;;;;;;;;;;;;23.75;49.14;101711.06;5074657;28;19979;-93
2022/05/20 08:52:46;;;;;;;;;;;;;;;23.75;48.73;101705.56;5073552;28;19954;-87
2022/05/20 08:55:12;;;;;;;;;;;;;;;23.75;48.73;101702.81;5074227;28;19955;-92
2022/05/20 08:57:38;;;;;;;;;;;;;;;23.75;48.66;101700.03;5073787;28;19931;-92
2022/05/20 09:00:07;;;;;;;;;;;;;;;23.77;48.72;101699.75;5056852;28;19931;-91
2022/05/20 09:02:32;;;;;;;;;;;;;;;23.77;48.82;101707.22;5074273;28;19962;-91
2022/05/20 09:04:58;;;;;;;;;;;;;;;23.77;48.70;101705.25;5073489;28;19964;-91
2022/05/20 09:07:23;;;;;;;;;;;;;;;23.78;49.12;101706.06;5058860;28;20345;-90
2022/05/20 09:09:53;;;;;;;;;;;;;;;23.77;48.78;101685.16;5077009;28;20390;-92
2022/05/20 09:12:31;;;;;;;;;;;;;;;23.77;49.06;101680.44;5078123;28;19931;-89
2022/05/20 09:17:46;;;;;;;;;;;;;;;23.77;48.66;101674.09;5077834;28;19923;-87
2022/05/20 09:20:16;;;;;;;;;;;;;;;23.77;49.10;101665.84;5083931;28;19970;-90
2022/05/20 09:22:52;;;;;;;;;;;;;;;23.76;48.65;101659.47;5078014;28;19916;-88
2022/05/20 09:25:23;;;;;;;;;;;;;;;23.77;49.07;101661.13;5076683;28;19926;-88
2022/05/20 09:27:51;;;;;;;;;;;;;;;23.77;48.59;101641.00;5076487;28;19939;-85
2022/05/20 09:30:20;;;;;;;;;;;;;;;23.77;48.98;101638.25;5075421;28;19921;-87
2022/05/20 09:33:09;;;;;;;;;;;;;;;23.77;48.96;101641.81;5076499;28;19934;-88
2022/05/20 09:35:34;;;;;;;;;;;;;;;23.77;49.04;101636.31;5066991;28;20356;-82
2022/05/20 09:38:07;;;;;;;;;;;;;;;23.78;48.86;101637.09;5076317;28;19973;-87
2022/05/20 09:40:36;;;;;;;;;;;;;;;23.77;48.93;101619.75;5075070;28;20384;-87
2022/05/20 09:43:22;;;;;;;;;;;;;;;23.77;48.75;101611.47;5076298;28;20001;-85
2022/05/20 09:45:48;;;;;;;;;;;;;;;23.78;48.50;101606.75;5076729;28;19939;-87
2022/05/20 09:48:31;;;;;;;;;;;;;;;23.78;48.50;101587.44;5075735;28;20336;-88
2022/05/20 09:51:02;;;;;;;;;;;;;;;23.77;48.85;101580.31;5076564;28;19961;-87
2022/05/20 09:53:39;;;;;;;;;;;;;;;23.78;48.59;101579.19;5076444;28;19921;-88
2022/05/20 09:56:13;;;;;;;;;;;;;;;23.77;48.78;101583.88;5076172;28;19925;-87
2022/05/20 09:58:38;;;;;;;;;;;;;;;23.77;48.54;101563.75;5075915;28;19969;-87
2022/05/20 10:01:06;;;;;;;;;;;;;;;23.78;48.88;101554.34;5075963;28;19935;-86
2022/05/20 10:03:40;;;;;;;;;;;;;;;23.77;48.53;101544.44;5076490;28;20069;-87
2022/05/20 10:06:28;;;;;;;;;;;;;;;23.77;48.71;101538.94;5076140;28;19968;-87
2022/05/20 10:09:11;;;;;;;;;;;;;;;23.78;48.39;101548.84;5074659;28;19931;-87
2022/05/20 10:11:50;;;;;;;;;;;;;;;23.77;48.75;101536.19;5076302;28;19923;-81
2022/05/20 10:14:19;;;;;;;;;;;;;;;23.78;48.34;101535.03;5074687;28;19923;-87
2022/05/20 10:17:03;;;;;;;;;;;;;;;23.78;48.34;101518.50;5075709;28;19931;-89
2022/05/20 10:19:50;;;;;;;;;;;;;;;23.77;48.34;101492.03;5076552;28;19916;-86
2022/05/20 10:22:23;;;;;;;;;;;;;;;23.77;48.56;101487.34;5076945;28;19949;-89
2022/05/20 10:24:48;;;;;;;;;;;;;;;23.77;48.41;101483.75;5077841;28;19917;-87
2022/05/20 10:27:32;;;;;;;;;;;;;;;23.77;48.59;101479.06;5074243;28;19950;-88
2022/05/20 10:33:00;;;;;;;;;;;;;;;23.77;48.68;101468.03;5075312;28;19944;-86
2022/05/20 10:35:30;;;;;;;;;;;;;;;23.77;48.87;101454.22;5073924;28;19943;-88
2022/05/20 10:37:59;;;;;;;;;;;;;;;23.77;48.32;101440.44;5074826;28;20339;-87
2022/05/20 10:40:37;;;;;;;;;;;;;;;23.77;48.82;101426.66;5074773;28;19985;-87
2022/05/20 10:43:16;;;;;;;;;;;;;;;23.77;48.37;101412.84;5073874;28;20413;-92
2022/05/20 10:48:39;;;;;;;;;;;;;;;23.79;48.68;101387.69;5075142;28;20337;-86
2022/05/20 10:51:20;;;;;;;;;;;;;;;23.78;48.50;101378.59;5074962;28;19927;-87
2022/05/20 10:53:48;;;;;;;;;;;;;;;23.79;48.90;101354.59;5073480;28;19967;-87
2022/05/20 10:56:13;;;;;;;;;;;;;;;23.79;48.81;101343.56;5074882;28;19916;-87
2022/05/20 10:58:57;;;;;;;;;;;;;;;23.80;48.42;101334.97;5075030;28;19916;-88
2022/05/20 11:01:23;;;;;;;;;;;;;;;23.80;48.85;101325.88;5074574;28;20007;-83
2022/05/20 11:04:06;;;;;;;;;;;;;;;23.80;49.01;101332.22;5074572;28;19997;-83
2022/05/20 11:06:31;;;;;;;;;;;;;;;23.80;48.83;101336.94;5073573;28;20002;-83
2022/05/20 11:09:03;;;;;;;;;;;;;;;23.80;48.79;101329.44;5074549;28;19916;-86
2022/05/20 11:11:50;;;;;;;;;;;;;;;23.80;48.83;101326.69;5074565;28;19927;-86
2022/05/20 11:14:34;;;;;;;;;;;;;;;23.81;48.62;101336.59;5073506;28;20318;-83
2022/05/20 11:17:14;;;;;;;;;;;;;;;23.80;48.92;101323.94;5074655;28;19956;-86
2022/05/20 11:19:42;;;;;;;;;;;;;;;23.81;48.61;101299.91;5073191;28;19923;-84
2022/05/20 11:22:23;;;;;;;;;;;;;;;23.82;49.04;101282.25;5072647;28;19917;-84
2022/05/20 11:24:51;;;;;;;;;;;;;;;23.82;48.66;101271.22;5073283;28;20021;-85
2022/05/20 11:27:36;;;;;;;;;;;;;;;23.81;49.02;101264.06;5073088;28;19947;-88
2022/05/20 11:30:07;;;;;;;;;;;;;;;23.82;48.94;101262.94;5071843;28;19951;-86
2022/05/20 11:32:47;;;;;;;;;;;;;;;23.82;49.11;101260.19;5074887;28;19927;-94
2022/05/20 11:35:32;;;;;;;;;;;;;;;23.83;48.71;101245.25;5075211;28;19916;-87
2022/05/20 11:38:04;;;;;;;;;;;;;;;23.83;48.82;101236.97;5072780;28;19964;-79
2022/05/20 11:40:47;;;;;;;;;;;;;;;23.83;48.74;101240.53;5074119;28;19962;-84
2022/05/20 11:43:32;;;;;;;;;;;;;;;23.83;48.86;101225.94;5073934;28;19941;-84
2022/05/20 11:46:06;;;;;;;;;;;;;;;23.84;48.66;101224.78;5072548;28;19940;-83
2022/05/20 11:48:34;;;;;;;;;;;;;;;23.83;48.80;101221.22;5073258;28;19930;-83
2022/05/20 11:51:06;;;;;;;;;;;;;;;23.84;48.74;101216.50;5073862;28;19923;-83
2022/05/20 11:53:42;;;;;;;;;;;;;;;23.84;48.67;101222.88;5074180;28;19965;-84
2022/05/20 11:56:14;;;;;;;;;;;;;;;23.84;48.75;101235.81;5073808;28;19936;-84
2022/05/20 11:58:57;;;;;;;;;;;;;;;23.85;48.93;101257.59;5072998;28;19916;-84
2022/05/20 12:01:25;;;;;;;;;;;;;;;23.85;48.85;101270.56;5074213;28;19927;-83
2022/05/20 12:04:09;;;;;;;;;;;;;;;23.85;49.07;101265.06;5072940;28;20354;-82
2022/05/20 12:06:39;;;;;;;;;;;;;;;23.84;48.70;101263.41;5058276;28;20421;-84
2022/05/20 12:09:24;;;;;;;;;;;;;;;23.84;48.79;101315.81;5072872;28;19950;-81
2022/05/20 12:12:07;;;;;;;;;;;;;;;23.85;48.93;101285.16;5074201;28;19923;-81
2022/05/20 12:14:52;;;;;;;;;;;;;;;23.84;48.74;101249.63;5072889;28;19917;-81
2022/05/20 12:17:38;;;;;;;;;;;;;;;23.83;48.83;101193.63;5073506;28;19939;-85
2022/05/20 12:25:50;;;;;;;;;;;;;;;23.85;48.88;101165.75;5073515;28;19934;-86
2022/05/20 12:28:22;;;;;;;;;;;;;;;23.85;49.39;101174.81;5073830;28;19933;-92
2022/05/20 12:31:04;;;;;;;;;;;;;;;23.87;49.00;101163.47;5074710;28;19962;-88
2022/05/20 12:33:48;;;;;;;;;;;;;;;23.87;49.03;101138.66;5074189;28;20007;-90
2022/05/20 12:36:29;;;;;;;;;;;;;;;23.87;49.05;101158.75;5072058;28;20343;-89
2022/05/20 12:39:06;;;;;;;;;;;;;;;23.89;49.20;101161.19;5073613;28;19927;-89
2022/05/20 12:41:33;;;;;;;;;;;;;;;23.91;49.13;101158.91;5074119;28;20467;-89
2022/05/20 12:44:01;;;;;;;;;;;;;;;23.91;49.07;101150.63;5077332;28;19939;-93
2022/05/20 12:46:41;;;;;;;;;;;;;;;23.91;49.12;101147.88;5076014;28;19954;-84
2022/05/20 12:49:07;;;;;;;;;;;;;;;23.92;49.18;101153.09;5076700;28;19978;-85
2022/05/20 12:51:45;;;;;;;;;;;;;;;23.93;49.31;101145.63;5077044;28;19952;-85
2022/05/20 12:54:14;;;;;;;;;;;;;;;23.94;49.72;101144.50;5075137;28;19973;-89
2022/05/20 12:56:39;;;;;;;;;;;;;;;23.95;49.34;101146.91;5075798;28;19950;-88
2022/05/20 12:59:11;;;;;;;;;;;;;;;23.97;49.30;101149.38;5076580;28;19916;-88
2022/05/20 13:01:37;;;;;;;;;;;;;;;23.97;49.43;101144.66;5076769;28;19935;-88
2022/05/20 13:04:07;;;;;;;;;;;;;;;23.98;49.82;101146.25;5076642;28;19916;-85
2022/05/20 13:06:33;;;;;;;;;;;;;;;24.00;49.50;101140.44;5075065;28;19916;-85
2022/05/20 13:09:01;;;;;;;;;;;;;;;24.01;49.87;101153.09;5076199;28;19941;-85
2022/05/20 13:11:27;;;;;;;;;;;;;;;24.02;49.56;101148.41;5076510;28;19946;-91
2022/05/20 13:13:53;;;;;;;;;;;;;;;24.03;49.87;101150.00;5087101;28;19973;-86
2022/05/20 13:16:20;;;;;;;;;;;;;;;24.04;49.58;101149.69;5084117;28;19941;-86
2022/05/20 13:18:57;;;;;;;;;;;;;;;24.04;49.54;101138.66;5076988;28;20405;-92